Tamassee, South Carolina
Current Conditions -  °F | °C
As of 4:54 AM on Sunday 26 Oct 2014 (Local Time) from KCEU Reporting Station
Clear Clear  
Wind Chill: 17°   Ceiling: Unl
Heat Index: 17°   Visibility: 10mi
Dew Point: 11°   Wind: 6mph
Humidity: 67%   Direction: 270°W
Pressure: 29.95"   Gusts: NA
Location:  34.88°N, 83.02°W
Report Text: KCEU 260854Z AUTO 27005KT 10SM CLR 17/11 A2995 RMK AO2 SLP135 T01670106 58005
Loading
Personal Weather Stations






























Interactive Weather Map
Tropical Storm Tracking
New forecast layout! Learn more

10-Day Weather Forecast

Advertisements
Track Severe Weather on mobile